sensor_id;sensor_type;location;lat;lon;timestamp;pressure;altitude;pressure_sealevel;temperature;humidity
75460;BME280;64039;53.060;9.342;2023-03-01T00:01:17;102837.41;;;-3.72;100.00
75460;BME280;64039;53.060;9.342;2023-03-01T00:03:43;102839.75;;;-3.67;100.00
75460;BME280;64039;53.060;9.342;2023-03-01T00:06:08;102837.78;;;-3.69;100.00
75460;BME280;64039;53.060;9.342;2023-03-01T00:08:35;102835.38;;;-3.68;100.00
75460;BME280;64039;53.060;9.342;2023-03-01T00:11:24;102833.06;;;-3.73;100.00
75460;BME280;64039;53.060;9.342;2023-03-01T00:13:54;102828.88;;;-3.73;100.00
75460;BME280;64039;53.060;9.342;2023-03-01T00:16:22;102827.81;;;-3.75;100.00
75460;BME280;64039;53.060;9.342;2023-03-01T00:18:48;102832.28;;;-3.88;100.00
75460;BME280;64039;53.060;9.342;2023-03-01T00:21:14;102830.09;;;-3.92;100.00
75460;BME280;64039;53.060;9.342;2023-03-01T00:23:40;102829.06;;;-3.95;100.00
75460;BME280;64039;53.060;9.342;2023-03-01T00:26:08;102821.78;;;-3.99;100.00
75460;BME280;64039;53.060;9.342;2023-03-01T00:28:34;102821.00;;;-3.90;100.00
75460;BME280;64039;53.060;9.342;2023-03-01T00:31:09;102815.31;;;-4.11;100.00
75460;BME280;64039;53.060;9.342;2023-03-01T00:33:35;102816.84;;;-4.20;100.00
75460;BME280;64039;53.060;9.342;2023-03-01T00:36:01;102816.53;;;-4.31;100.00
75460;BME280;64039;53.060;9.342;2023-03-01T00:38:27;102811.59;;;-4.29;100.00
75460;BME280;64039;53.060;9.342;2023-03-01T00:40:53;102819.44;;;-4.35;100.00
75460;BME280;64039;53.060;9.342;2023-03-01T00:43:18;102831.25;;;-4.35;100.00
75460;BME280;64039;53.060;9.342;2023-03-01T00:45:44;102829.97;;;-4.32;100.00
75460;BME280;64039;53.060;9.342;2023-03-01T00:48:09;102831.66;;;-4.09;100.00
75460;BME280;64039;53.060;9.342;2023-03-01T00:50:34;102829.25;;;-4.31;100.00
75460;BME280;64039;53.060;9.342;2023-03-01T00:53:00;102828.72;;;-4.35;100.00
75460;BME280;64039;53.060;9.342;2023-03-01T00:55:25;102822.38;;;-4.39;100.00
75460;BME280;64039;53.060;9.342;2023-03-01T00:57:51;102824.84;;;-4.24;100.00
75460;BME280;64039;53.060;9.342;2023-03-01T01:00:17;102815.25;;;-4.27;100.00
75460;BME280;64039;53.060;9.342;2023-03-01T01:02:43;102812.81;;;-4.18;100.00
75460;BME280;64039;53.060;9.342;2023-03-01T01:05:09;102815.59;;;-4.24;100.00
75460;BME280;64039;53.060;9.342;2023-03-01T01:07:35;102807.56;;;-4.20;100.00
75460;BME280;64039;53.060;9.342;2023-03-01T01:10:01;102818.81;;;-4.18;100.00
75460;BME280;64039;53.060;9.342;2023-03-01T01:12:26;102818.63;;;-4.12;100.00
75460;BME280;64039;53.060;9.342;2023-03-01T01:14:52;102807.72;;;-4.18;100.00
75460;BME280;64039;53.060;9.342;2023-03-01T01:17:19;102814.66;;;-4.24;100.00
75460;BME280;64039;53.060;9.342;2023-03-01T01:19:44;102812.13;;;-4.24;100.00
75460;BME280;64039;53.060;9.342;2023-03-01T01:22:09;102813.88;;;-4.47;100.00
75460;BME280;64039;53.060;9.342;2023-03-01T01:24:35;102817.09;;;-4.33;100.00
75460;BME280;64039;53.060;9.342;2023-03-01T01:27:00;102813.06;;;-4.24;100.00
75460;BME280;64039;53.060;9.342;2023-03-01T01:29:26;102810.75;;;-4.37;100.00
75460;BME280;64039;53.060;9.342;2023-03-01T01:31:51;102815.28;;;-4.34;100.00
75460;BME280;64039;53.060;9.342;2023-03-01T01:34:20;102809.66;;;-4.39;100.00
75460;BME280;64039;53.060;9.342;2023-03-01T01:36:50;102803.84;;;-4.38;100.00
75460;BME280;64039;53.060;9.342;2023-03-01T01:39:16;102794.22;;;-4.33;100.00
75460;BME280;64039;53.060;9.342;2023-03-01T01:41:42;102788.50;;;-4.23;100.00
75460;BME280;64039;53.060;9.342;2023-03-01T01:44:25;102787.34;;;-4.42;100.00
75460;BME280;64039;53.060;9.342;2023-03-01T01:47:02;102787.59;;;-4.54;100.00
75460;BME280;64039;53.060;9.342;2023-03-01T01:49:35;102790.91;;;-4.63;100.00
75460;BME280;64039;53.060;9.342;2023-03-01T01:54:36;102781.56;;;-4.48;100.00
75460;BME280;64039;53.060;9.342;2023-03-01T01:57:09;102772.63;;;-4.44;100.00
75460;BME280;64039;53.060;9.342;2023-03-01T01:59:36;102777.59;;;-4.53;100.00
75460;BME280;64039;53.060;9.342;2023-03-01T02:02:03;102772.94;;;-4.71;100.00
75460;BME280;64039;53.060;9.342;2023-03-01T02:04:30;102769.00;;;-4.77;100.00
75460;BME280;64039;53.060;9.342;2023-03-01T02:07:17;102779.16;;;-4.77;100.00
75460;BME280;64039;53.060;9.342;2023-03-01T02:09:47;102770.81;;;-4.76;100.00
75460;BME280;64039;53.060;9.342;2023-03-01T02:12:17;102775.28;;;-4.66;100.00
75460;BME280;64039;53.060;9.342;2023-03-01T02:14:44;102776.41;;;-4.71;100.00
75460;BME280;64039;53.060;9.342;2023-03-01T02:17:12;102774.97;;;-4.76;100.00
75460;BME280;64039;53.060;9.342;2023-03-01T02:22:27;102772.44;;;-4.83;100.00
75460;BME280;64039;53.060;9.342;2023-03-01T02:27:51;102763.94;;;-4.84;100.00
75460;BME280;64039;53.060;9.342;2023-03-01T02:30:19;102762.97;;;-4.77;100.00
75460;BME280;64039;53.060;9.342;2023-03-01T02:32:47;102759.16;;;-4.74;100.00
75460;BME280;64039;53.060;9.342;2023-03-01T02:35:15;102759.38;;;-4.86;100.00
75460;BME280;64039;53.060;9.342;2023-03-01T02:37:42;102756.88;;;-4.94;100.00
75460;BME280;64039;53.060;9.342;2023-03-01T02:40:12;102761.44;;;-4.91;100.00
75460;BME280;64039;53.060;9.342;2023-03-01T02:42:51;102767.56;;;-4.89;100.00
75460;BME280;64039;53.060;9.342;2023-03-01T02:45:20;102756.13;;;-4.85;100.00
75460;BME280;64039;53.060;9.342;2023-03-01T02:47:46;102760.16;;;-4.95;100.00
75460;BME280;64039;53.060;9.342;2023-03-01T02:53:02;102751.75;;;-4.86;100.00
75460;BME280;64039;53.060;9.342;2023-03-01T02:55:33;102745.19;;;-4.77;100.00
75460;BME280;64039;53.060;9.342;2023-03-01T02:58:02;102736.03;;;-4.98;100.00
75460;BME280;64039;53.060;9.342;2023-03-01T03:00:33;102736.03;;;-4.91;100.00
75460;BME280;64039;53.060;9.342;2023-03-01T03:03:02;102735.97;;;-4.77;100.00
75460;BME280;64039;53.060;9.342;2023-03-01T03:05:33;102744.69;;;-4.75;100.00
75460;BME280;64039;53.060;9.342;2023-03-01T03:08:01;102745.75;;;-4.80;100.00
75460;BME280;64039;53.060;9.342;2023-03-01T03:10:29;102738.91;;;-4.88;100.00
75460;BME280;64039;53.060;9.342;2023-03-01T03:12:58;102742.94;;;-4.97;100.00
75460;BME280;64039;53.060;9.342;2023-03-01T03:15:26;102738.06;;;-5.10;100.00
75460;BME280;64039;53.060;9.342;2023-03-01T03:17:53;102739.88;;;-5.09;100.00
75460;BME280;64039;53.060;9.342;2023-03-01T03:20:21;102736.91;;;-4.91;100.00
75460;BME280;64039;53.060;9.342;2023-03-01T03:22:49;102737.50;;;-5.08;100.00
75460;BME280;64039;53.060;9.342;2023-03-01T03:25:16;102735.34;;;-5.05;100.00
75460;BME280;64039;53.060;9.342;2023-03-01T03:27:43;102731.19;;;-5.04;100.00
75460;BME280;64039;53.060;9.342;2023-03-01T03:30:11;102726.56;;;-4.85;100.00
75460;BME280;64039;53.060;9.342;2023-03-01T03:32:41;102727.81;;;-4.81;100.00
75460;BME280;64039;53.060;9.342;2023-03-01T03:35:09;102727.66;;;-4.83;100.00
75460;BME280;64039;53.060;9.342;2023-03-01T03:37:37;102720.41;;;-4.87;100.00
75460;BME280;64039;53.060;9.342;2023-03-01T03:40:21;102714.38;;;-4.80;100.00
75460;BME280;64039;53.060;9.342;2023-03-01T03:42:48;102716.00;;;-4.81;100.00
75460;BME280;64039;53.060;9.342;2023-03-01T03:45:14;102713.22;;;-4.68;100.00
75460;BME280;64039;53.060;9.342;2023-03-01T03:47:40;102707.41;;;-4.67;100.00
75460;BME280;64039;53.060;9.342;2023-03-01T03:50:06;102710.56;;;-4.77;100.00
75460;BME280;64039;53.060;9.342;2023-03-01T03:52:32;102706.31;;;-4.69;100.00
75460;BME280;64039;53.060;9.342;2023-03-01T03:54:57;102706.59;;;-4.51;100.00
75460;BME280;64039;53.060;9.342;2023-03-01T03:57:22;102703.31;;;-4.50;100.00
75460;BME280;64039;53.060;9.342;2023-03-01T03:59:48;102697.00;;;-4.54;100.00
75460;BME280;64039;53.060;9.342;2023-03-01T04:02:13;102700.06;;;-4.49;100.00
75460;BME280;64039;53.060;9.342;2023-03-01T04:04:49;102706.28;;;-4.54;100.00
75460;BME280;64039;53.060;9.342;2023-03-01T04:07:16;102700.94;;;-4.49;100.00
75460;BME280;64039;53.060;9.342;2023-03-01T04:09:42;102684.84;;;-4.56;100.00
75460;BME280;64039;53.060;9.342;2023-03-01T04:12:08;102684.66;;;-4.51;100.00
75460;BME280;64039;53.060;9.342;2023-03-01T04:14:33;102688.28;;;-4.56;100.00
75460;BME280;64039;53.060;9.342;2023-03-01T04:16:59;102685.31;;;-4.75;100.00
75460;BME280;64039;53.060;9.342;2023-03-01T04:19:24;102691.28;;;-4.67;100.00
75460;BME280;64039;53.060;9.342;2023-03-01T04:21:49;102684.22;;;-4.77;100.00
75460;BME280;64039;53.060;9.342;2023-03-01T04:24:15;102682.97;;;-4.81;100.00
75460;BME280;64039;53.060;9.342;2023-03-01T04:26:41;102687.56;;;-4.93;100.00
75460;BME280;64039;53.060;9.342;2023-03-01T04:29:08;102685.41;;;-4.90;100.00
75460;BME280;64039;53.060;9.342;2023-03-01T04:31:33;102680.34;;;-4.97;100.00
75460;BME280;64039;53.060;9.342;2023-03-01T04:33:59;102684.72;;;-4.96;100.00
75460;BME280;64039;53.060;9.342;2023-03-01T04:36:27;102688.63;;;-4.83;100.00
75460;BME280;64039;53.060;9.342;2023-03-01T04:38:53;102680.63;;;-4.79;100.00
75460;BME280;64039;53.060;9.342;2023-03-01T04:41:21;102683.69;;;-4.75;100.00
75460;BME280;64039;53.060;9.342;2023-03-01T04:43:47;102680.53;;;-4.95;100.00
75460;BME280;64039;53.060;9.342;2023-03-01T04:46:16;102681.13;;;-5.05;100.00
75460;BME280;64039;53.060;9.342;2023-03-01T04:48:43;102679.34;;;-5.13;100.00
75460;BME280;64039;53.060;9.342;2023-03-01T04:51:08;102685.69;;;-5.17;100.00
75460;BME280;64039;53.060;9.342;2023-03-01T04:53:35;102679.31;;;-5.06;100.00
75460;BME280;64039;53.060;9.342;2023-03-01T04:56:04;102688.09;;;-4.88;100.00
75460;BME280;64039;53.060;9.342;2023-03-01T04:58:29;102687.16;;;-4.81;100.00
75460;BME280;64039;53.060;9.342;2023-03-01T05:00:55;102686.50;;;-4.95;100.00
75460;BME280;64039;53.060;9.342;2023-03-01T05:03:21;102687.25;;;-5.03;100.00
75460;BME280;64039;53.060;9.342;2023-03-01T05:05:49;102697.06;;;-5.06;100.00
75460;BME280;64039;53.060;9.342;2023-03-01T05:08:15;102695.09;;;-5.09;100.00
75460;BME280;64039;53.060;9.342;2023-03-01T05:10:52;102694.22;;;-5.16;100.00
75460;BME280;64039;53.060;9.342;2023-03-01T05:13:18;102691.53;;;-5.25;100.00
75460;BME280;64039;53.060;9.342;2023-03-01T05:16:07;102683.34;;;-5.23;100.00
75460;BME280;64039;53.060;9.342;2023-03-01T05:18:36;102687.47;;;-5.16;100.00
75460;BME280;64039;53.060;9.342;2023-03-01T05:21:05;102698.56;;;-5.15;100.00
75460;BME280;64039;53.060;9.342;2023-03-01T05:23:32;102690.78;;;-5.24;100.00
75460;BME280;64039;53.060;9.342;2023-03-01T05:25:59;102689.53;;;-5.35;100.00
75460;BME280;64039;53.060;9.342;2023-03-01T05:28:26;102689.53;;;-5.35;100.00
75460;BME280;64039;53.060;9.342;2023-03-01T05:30:53;102685.19;;;-5.36;100.00
75460;BME280;64039;53.060;9.342;2023-03-01T05:33:19;102685.47;;;-5.11;100.00
75460;BME280;64039;53.060;9.342;2023-03-01T05:35:47;102693.66;;;-5.14;100.00
75460;BME280;64039;53.060;9.342;2023-03-01T05:38:14;102695.66;;;-5.18;100.00
75460;BME280;64039;53.060;9.342;2023-03-01T05:40:43;102683.75;;;-5.34;100.00
75460;BME280;64039;53.060;9.342;2023-03-01T05:43:10;102692.28;;;-5.33;100.00
75460;BME280;64039;53.060;9.342;2023-03-01T05:45:37;102700.28;;;-5.45;100.00
75460;BME280;64039;53.060;9.342;2023-03-01T05:48:04;102694.66;;;-5.49;100.00
75460;BME280;64039;53.060;9.342;2023-03-01T05:50:37;102697.03;;;-5.51;100.00
75460;BME280;64039;53.060;9.342;2023-03-01T05:53:07;102697.34;;;-5.41;100.00
75460;BME280;64039;53.060;9.342;2023-03-01T05:55:33;102693.22;;;-5.47;100.00
75460;BME280;64039;53.060;9.342;2023-03-01T05:58:04;102694.28;;;-5.45;100.00
75460;BME280;64039;53.060;9.342;2023-03-01T06:00:31;102704.75;;;-5.28;100.00
75460;BME280;64039;53.060;9.342;2023-03-01T06:02:58;102698.94;;;-5.27;100.00
75460;BME280;64039;53.060;9.342;2023-03-01T06:05:24;102697.72;;;-5.38;100.00
75460;BME280;64039;53.060;9.342;2023-03-01T06:07:50;102703.19;;;-5.42;100.00
75460;BME280;64039;53.060;9.342;2023-03-01T06:10:17;102701.00;;;-5.46;100.00
75460;BME280;64039;53.060;9.342;2023-03-01T06:12:44;102697.19;;;-5.49;100.00
75460;BME280;64039;53.060;9.342;2023-03-01T06:15:12;102700.44;;;-5.43;100.00
75460;BME280;64039;53.060;9.342;2023-03-01T06:17:41;102700.59;;;-5.27;100.00
75460;BME280;64039;53.060;9.342;2023-03-01T06:20:11;102694.47;;;-5.37;100.00
75460;BME280;64039;53.060;9.342;2023-03-01T06:22:37;102689.38;;;-5.37;100.00
75460;BME280;64039;53.060;9.342;2023-03-01T06:25:04;102692.44;;;-5.32;100.00
75460;BME280;64039;53.060;9.342;2023-03-01T06:27:30;102692.47;;;-5.39;100.00
75460;BME280;64039;53.060;9.342;2023-03-01T06:29:56;102690.44;;;-5.27;100.00
75460;BME280;64039;53.060;9.342;2023-03-01T06:32:22;102684.97;;;-5.23;100.00
75460;BME280;64039;53.060;9.342;2023-03-01T06:34:48;102683.16;;;-5.17;100.00
75460;BME280;64039;53.060;9.342;2023-03-01T06:37:13;102684.22;;;-5.15;100.00
75460;BME280;64039;53.060;9.342;2023-03-01T06:39:38;102685.41;;;-4.90;100.00
75460;BME280;64039;53.060;9.342;2023-03-01T06:42:04;102672.09;;;-4.49;100.00
75460;BME280;64039;53.060;9.342;2023-03-01T06:44:29;102671.06;;;-4.59;100.00
75460;BME280;64039;53.060;9.342;2023-03-01T06:46:55;102662.34;;;-4.53;100.00
75460;BME280;64039;53.060;9.342;2023-03-01T06:49:20;102665.97;;;-4.59;100.00
75460;BME280;64039;53.060;9.342;2023-03-01T06:51:46;102675.19;;;-4.21;100.00
75460;BME280;64039;53.060;9.342;2023-03-01T06:54:12;102675.56;;;-4.26;100.00
75460;BME280;64039;53.060;9.342;2023-03-01T06:56:38;102668.22;;;-4.15;100.00
75460;BME280;64039;53.060;9.342;2023-03-01T06:59:03;102670.59;;;-4.17;100.00
75460;BME280;64039;53.060;9.342;2023-03-01T07:01:29;102676.78;;;-4.22;100.00
75460;BME280;64039;53.060;9.342;2023-03-01T07:03:55;102676.28;;;-4.03;100.00
75460;BME280;64039;53.060;9.342;2023-03-01T07:06:21;102676.69;;;-4.07;100.00
75460;BME280;64039;53.060;9.342;2023-03-01T07:08:46;102670.81;;;-3.99;100.00
75460;BME280;64039;53.060;9.342;2023-03-01T07:11:12;102675.91;;;-3.99;100.00
75460;BME280;64039;53.060;9.342;2023-03-01T07:13:37;102669.53;;;-3.80;100.00
75460;BME280;64039;53.060;9.342;2023-03-01T07:16:03;102658.59;;;-3.95;100.00
75460;BME280;64039;53.060;9.342;2023-03-01T07:18:28;102657.72;;;-3.79;100.00
75460;BME280;64039;53.060;9.342;2023-03-01T07:20:54;102671.72;;;-3.99;100.00
75460;BME280;64039;53.060;9.342;2023-03-01T07:23:19;102669.75;;;-3.85;100.00
75460;BME280;64039;53.060;9.342;2023-03-01T07:25:53;102672.00;;;-3.72;100.00
75460;BME280;64039;53.060;9.342;2023-03-01T07:28:20;102680.88;;;-3.69;100.00
75460;BME280;64039;53.060;9.342;2023-03-01T07:30:47;102676.69;;;-3.68;100.00
75460;BME280;64039;53.060;9.342;2023-03-01T07:33:12;102668.25;;;-3.60;100.00
75460;BME280;64039;53.060;9.342;2023-03-01T07:35:38;102675.00;;;-3.44;100.00
75460;BME280;64039;53.060;9.342;2023-03-01T07:38:03;102678.28;;;-3.29;100.00
75460;BME280;64039;53.060;9.342;2023-03-01T07:40:28;102682.88;;;-3.02;100.00
75460;BME280;64039;53.060;9.342;2023-03-01T07:42:57;102677.28;;;-2.91;100.00
75460;BME280;64039;53.060;9.342;2023-03-01T07:45:24;102674.03;;;-2.81;100.00
75460;BME280;64039;53.060;9.342;2023-03-01T07:47:51;102670.53;;;-2.65;100.00
75460;BME280;64039;53.060;9.342;2023-03-01T07:50:17;102676.81;;;-2.21;100.00
75460;BME280;64039;53.060;9.342;2023-03-01T07:52:45;102677.03;;;-2.11;100.00
75460;BME280;64039;53.060;9.342;2023-03-01T07:55:11;102681.06;;;-2.04;100.00
75460;BME280;64039;53.060;9.342;2023-03-01T07:57:36;102667.38;;;-1.80;100.00
75460;BME280;64039;53.060;9.342;2023-03-01T08:00:02;102673.00;;;-1.58;100.00
75460;BME280;64039;53.060;9.342;2023-03-01T08:02:28;102668.63;;;-1.50;100.00
75460;BME280;64039;53.060;9.342;2023-03-01T08:04:53;102673.28;;;-1.54;100.00
75460;BME280;64039;53.060;9.342;2023-03-01T08:07:19;102661.75;;;-1.33;100.00
75460;BME280;64039;53.060;9.342;2023-03-01T08:09:44;102659.81;;;-1.18;100.00
75460;BME280;64039;53.060;9.342;2023-03-01T08:12:10;102660.25;;;-1.14;100.00
75460;BME280;64039;53.060;9.342;2023-03-01T08:14:35;102663.41;;;-0.90;100.00
75460;BME280;64039;53.060;9.342;2023-03-01T08:17:00;102663.28;;;-0.91;100.00
75460;BME280;64039;53.060;9.342;2023-03-01T08:19:28;102665.16;;;-0.63;100.00
75460;BME280;64039;53.060;9.342;2023-03-01T08:21:54;102664.41;;;-0.53;100.00
75460;BME280;64039;53.060;9.342;2023-03-01T08:24:20;102670.09;;;-0.38;100.00
75460;BME280;64039;53.060;9.342;2023-03-01T08:26:45;102669.94;;;-0.30;100.00
75460;BME280;64039;53.060;9.342;2023-03-01T08:29:11;102672.09;;;-0.07;100.00
75460;BME280;64039;53.060;9.342;2023-03-01T08:31:38;102664.53;;;0.03;100.00
75460;BME280;64039;53.060;9.342;2023-03-01T08:34:06;102655.88;;;0.20;100.00
75460;BME280;64039;53.060;9.342;2023-03-01T08:36:38;102658.66;;;0.32;100.00
75460;BME280;64039;53.060;9.342;2023-03-01T08:39:04;102653.00;;;0.45;100.00
75460;BME280;64039;53.060;9.342;2023-03-01T08:41:30;102653.44;;;0.50;100.00
75460;BME280;64039;53.060;9.342;2023-03-01T08:43:56;102653.88;;;0.54;100.00
75460;BME280;64039;53.060;9.342;2023-03-01T08:46:32;102655.78;;;0.57;100.00
75460;BME280;64039;53.060;9.342;2023-03-01T08:48:58;102655.94;;;0.58;100.00
75460;BME280;64039;53.060;9.342;2023-03-01T08:51:24;102652.69;;;0.70;100.00
75460;BME280;64039;53.060;9.342;2023-03-01T08:53:50;102646.84;;;0.81;100.00
75460;BME280;64039;53.060;9.342;2023-03-01T08:56:16;102640.41;;;0.95;100.00
75460;BME280;64039;53.060;9.342;2023-03-01T08:58:47;102637.72;;;0.93;100.00
75460;BME280;64039;53.060;9.342;2023-03-01T09:01:15;102641.38;;;1.06;100.00
75460;BME280;64039;53.060;9.342;2023-03-01T09:03:42;102641.84;;;1.21;100.00
75460;BME280;64039;53.060;9.342;2023-03-01T09:06:08;102637.34;;;1.18;100.00
75460;BME280;64039;53.060;9.342;2023-03-01T09:08:38;102638.91;;;1.27;100.00
75460;BME280;64039;53.060;9.342;2023-03-01T09:11:05;102648.00;;;1.52;100.00
75460;BME280;64039;53.060;9.342;2023-03-01T09:13:31;102642.44;;;1.77;100.00
75460;BME280;64039;53.060;9.342;2023-03-01T09:15:58;102638.91;;;1.96;100.00
75460;BME280;64039;53.060;9.342;2023-03-01T09:18:24;102634.53;;;2.05;95.52
75460;BME280;64039;53.060;9.342;2023-03-01T09:20:49;102635.06;;;2.11;88.11
75460;BME280;64039;53.060;9.342;2023-03-01T09:23:15;102630.94;;;2.34;85.10
75460;BME280;64039;53.060;9.342;2023-03-01T09:25:40;102632.38;;;2.51;83.56
75460;BME280;64039;53.060;9.342;2023-03-01T09:28:06;102628.13;;;2.51;84.05
75460;BME280;64039;53.060;9.342;2023-03-01T09:30:31;102630.31;;;2.57;83.02
75460;BME280;64039;53.060;9.342;2023-03-01T09:32:57;102637.38;;;2.70;82.17
75460;BME280;64039;53.060;9.342;2023-03-01T09:35:22;102636.81;;;2.74;78.18
75460;BME280;64039;53.060;9.342;2023-03-01T09:37:49;102633.00;;;2.79;74.21
75460;BME280;64039;53.060;9.342;2023-03-01T09:40:21;102641.47;;;2.89;76.71
75460;BME280;64039;53.060;9.342;2023-03-01T09:43:54;102638.34;;;2.93;79.04
75460;BME280;64039;53.060;9.342;2023-03-01T09:45:56;102629.97;;;2.95;75.21
75460;BME280;64039;53.060;9.342;2023-03-01T09:48:26;102637.84;;;2.97;74.76
75460;BME280;64039;53.060;9.342;2023-03-01T09:50:53;102628.31;;;2.96;72.61
75460;BME280;64039;53.060;9.342;2023-03-01T09:53:26;102627.00;;;3.01;72.95
75460;BME280;64039;53.060;9.342;2023-03-01T09:56:00;102628.81;;;2.92;72.42
75460;BME280;64039;53.060;9.342;2023-03-01T10:01:26;102623.56;;;3.01;75.81
75460;BME280;64039;53.060;9.342;2023-03-01T10:06:31;102631.81;;;3.29;74.76
75460;BME280;64039;53.060;9.342;2023-03-01T10:09:01;102628.38;;;3.18;76.50
75460;BME280;64039;53.060;9.342;2023-03-01T10:11:36;102630.66;;;3.25;76.50
75460;BME280;64039;53.060;9.342;2023-03-01T10:14:07;102620.19;;;3.34;78.27
75460;BME280;64039;53.060;9.342;2023-03-01T10:16:59;102619.13;;;3.42;78.25
75460;BME280;64039;53.060;9.342;2023-03-01T10:19:38;102610.56;;;3.32;78.40
75460;BME280;64039;53.060;9.342;2023-03-01T10:22:13;102611.78;;;3.47;75.98
75460;BME280;64039;53.060;9.342;2023-03-01T10:24:41;102610.72;;;3.55;75.54
75460;BME280;64039;53.060;9.342;2023-03-01T10:27:21;102612.16;;;3.52;76.70
75460;BME280;64039;53.060;9.342;2023-03-01T10:29:55;102608.59;;;3.61;73.91
75460;BME280;64039;53.060;9.342;2023-03-01T10:32:23;102610.19;;;3.59;75.51
75460;BME280;64039;53.060;9.342;2023-03-01T10:34:50;102610.41;;;3.62;76.70
75460;BME280;64039;53.060;9.342;2023-03-01T10:37:21;102612.22;;;3.64;76.92
75460;BME280;64039;53.060;9.342;2023-03-01T10:40:08;102606.94;;;3.84;73.44
75460;BME280;64039;53.060;9.342;2023-03-01T10:42:37;102604.94;;;3.92;73.80
75460;BME280;64039;53.060;9.342;2023-03-01T10:45:29;102605.91;;;4.04;74.33
75460;BME280;64039;53.060;9.342;2023-03-01T10:48:15;102606.44;;;4.00;74.21
75460;BME280;64039;53.060;9.342;2023-03-01T10:53:28;102600.31;;;4.10;74.88
75460;BME280;64039;53.060;9.342;2023-03-01T10:56:02;102601.81;;;4.18;71.52
75460;BME280;64039;53.060;9.342;2023-03-01T10:58:29;102600.53;;;4.13;77.00
75460;BME280;64039;53.060;9.342;2023-03-01T11:01:01;102601.41;;;4.02;78.20
75460;BME280;64039;53.060;9.342;2023-03-01T11:03:32;102610.19;;;4.16;76.61
75460;BME280;64039;53.060;9.342;2023-03-01T11:06:05;102596.50;;;4.17;75.82
75460;BME280;64039;53.060;9.342;2023-03-01T11:08:43;102593.31;;;4.31;76.93
75460;BME280;64039;53.060;9.342;2023-03-01T11:13:34;102584.84;;;4.56;79.22
75460;BME280;64039;53.060;9.342;2023-03-01T11:16:01;102589.66;;;4.63;78.74
75460;BME280;64039;53.060;9.342;2023-03-01T11:18:29;102592.78;;;4.71;79.66
75460;BME280;64039;53.060;9.342;2023-03-01T11:20:57;102588.88;;;4.76;78.75
75460;BME280;64039;53.060;9.342;2023-03-01T11:23:23;102583.50;;;4.73;78.46
75460;BME280;64039;53.060;9.342;2023-03-01T11:26:00;102581.03;;;4.75;78.26
75460;BME280;64039;53.060;9.342;2023-03-01T11:28:28;102584.06;;;4.69;80.33
75460;BME280;64039;53.060;9.342;2023-03-01T11:31:04;102578.78;;;4.55;83.75
75460;BME280;64039;53.060;9.342;2023-03-01T11:36:10;102576.53;;;4.72;81.50
75460;BME280;64039;53.060;9.342;2023-03-01T11:38:38;102582.50;;;4.95;82.76
75460;BME280;64039;53.060;9.342;2023-03-01T11:41:18;102577.41;;;5.20;82.37
75460;BME280;64039;53.060;9.342;2023-03-01T11:43:52;102578.41;;;5.22;82.12
75460;BME280;64039;53.060;9.342;2023-03-01T11:52:10;102572.31;;;5.33;85.02
75460;BME280;64039;53.060;9.342;2023-03-01T12:00:14;102561.44;;;5.38;88.14
75460;BME280;64039;53.060;9.342;2023-03-01T12:05:43;102551.75;;;5.47;86.55
75460;BME280;64039;53.060;9.342;2023-03-01T12:08:38;102540.63;;;5.73;85.81
75460;BME280;64039;53.060;9.342;2023-03-01T12:11:35;102537.00;;;5.83;85.59
75460;BME280;64039;53.060;9.342;2023-03-01T12:25:34;102528.78;;;5.63;86.99
75460;BME280;64039;53.060;9.342;2023-03-01T12:37:22;102520.03;;;5.87;83.58
75460;BME280;64039;53.060;9.342;2023-03-01T12:45:50;102503.34;;;5.95;87.00
75460;BME280;64039;53.060;9.342;2023-03-01T12:51:20;102490.78;;;6.00;85.46
75460;BME280;64039;53.060;9.342;2023-03-01T12:53:49;102484.59;;;6.11;84.24
75460;BME280;64039;53.060;9.342;2023-03-01T12:56:29;102485.00;;;6.17;81.92
75460;BME280;64039;53.060;9.342;2023-03-01T13:02:02;102484.13;;;6.17;82.79
75460;BME280;64039;53.060;9.342;2023-03-01T13:07:38;102478.56;;;6.24;83.52
75460;BME280;64039;53.060;9.342;2023-03-01T13:17:50;102460.47;;;6.51;81.26
75460;BME280;64039;53.060;9.342;2023-03-01T13:20:18;102455.50;;;6.54;80.71
75460;BME280;64039;53.060;9.342;2023-03-01T13:22:45;102455.09;;;6.61;79.36
75460;BME280;64039;53.060;9.342;2023-03-01T13:25:15;102451.09;;;6.53;79.94
75460;BME280;64039;53.060;9.342;2023-03-01T13:27:41;102446.91;;;6.55;80.22
75460;BME280;64039;53.060;9.342;2023-03-01T13:35:52;102455.56;;;6.69;78.77
75460;BME280;64039;53.060;9.342;2023-03-01T13:39:39;102446.00;;;6.68;80.55
75460;BME280;64039;53.060;9.342;2023-03-01T13:46:48;102439.53;;;6.74;80.35
75460;BME280;64039;53.060;9.342;2023-03-01T13:49:17;102442.72;;;6.70;81.95
75460;BME280;64039;53.060;9.342;2023-03-01T13:51:46;102435.38;;;6.63;80.84
75460;BME280;64039;53.060;9.342;2023-03-01T13:54:14;102434.06;;;6.70;79.27
75460;BME280;64039;53.060;9.342;2023-03-01T13:56:40;102430.38;;;6.80;79.63
75460;BME280;64039;53.060;9.342;2023-03-01T13:59:14;102432.69;;;6.61;79.85
75460;BME280;64039;53.060;9.342;2023-03-01T14:01:40;102429.59;;;6.67;82.33
75460;BME280;64039;53.060;9.342;2023-03-01T14:04:20;102428.50;;;6.64;81.49
75460;BME280;64039;53.060;9.342;2023-03-01T14:06:46;102434.69;;;6.66;80.67
75460;BME280;64039;53.060;9.342;2023-03-01T14:09:16;102430.38;;;6.80;79.40
75460;BME280;64039;53.060;9.342;2023-03-01T14:19:45;102409.59;;;6.65;81.55
75460;BME280;64039;53.060;9.342;2023-03-01T14:22:20;102406.50;;;6.70;81.37
75460;BME280;64039;53.060;9.342;2023-03-01T14:24:52;102399.91;;;6.75;80.80
75460;BME280;64039;53.060;9.342;2023-03-01T14:27:20;102399.47;;;6.83;79.88
75460;BME280;64039;53.060;9.342;2023-03-01T14:29:57;102393.84;;;6.75;82.03
75460;BME280;64039;53.060;9.342;2023-03-01T14:32:29;102384.88;;;6.70;81.67
75460;BME280;64039;53.060;9.342;2023-03-01T14:34:55;102387.31;;;6.67;83.61